IN-0045 weather

Catholic Medical Centre Helipad
Kangla, Manipur, India

Public forecast

Using degrees Celsius for public forecast. Weather courtesy of forecast.io.

Closest aviation weather report (METAR) to Catholic Medical Centre Helipad

Closest report is Imphal Airport, 3.7 nm (6.9 km) SW. Retrieved 2020/02/19 06:30 UTC (14 minutes ago):

VEIM 190630Z 00000KT 4000 HZ FEW008 21/06 Q1018 NOSIG

Closest aviation forecast (TAF) to Catholic Medical Centre Helipad

Forecast is more than 12 hours old.

Closest forecast is Imphal Airport, 3.7 nm (6.9 km) SW. Retrieved 2017/12/28 12:00 UTC (2 years ago):

TAF VEIM 281100Z 2812/2821 06006KT 4000 BR FEW020 BECMG 2815/2817 00000KT 2000 BR